Time;durP1;ratioP1;P1;durP2;ratioP2;P2;SDS_P1;SDS_P2;PMS_P1;PMS_P2;Temp;Humidity;BMP_temperature;BMP_pressure;BME280_temperature;BME280_humidity;BME280_pressure;Samples;Min_cycle;Max_cycle;Signal;HPM_P1;HPM_P2
2021/05/22 00:01:29;;;;;;;1.83;0.70;;;20.90;51.90;;;;;;5047484;28;20685;-59
2021/05/22 00:03:56;;;;;;;1.97;0.80;;;20.90;51.90;;;;;;5049878;28;20222;-59
2021/05/22 00:06:23;;;;;;;1.83;0.83;;;20.90;51.90;;;;;;5048670;28;20238;-60
2021/05/22 00:08:50;;;;;;;1.97;0.83;;;20.90;51.90;;;;;;5045668;28;20225;-59
2021/05/22 00:11:17;;;;;;;1.40;0.70;;;20.90;51.80;;;;;;5046473;28;20233;-62
2021/05/22 00:13:44;;;;;;;1.60;0.87;;;20.90;51.80;;;;;;5058065;28;20228;-60
2021/05/22 00:16:11;;;;;;;1.93;0.63;;;20.80;51.90;;;;;;5049252;28;20222;-62
2021/05/22 00:18:38;;;;;;;1.63;0.90;;;20.80;51.80;;;;;;5046180;28;20230;-60
2021/05/22 00:21:05;;;;;;;1.10;0.67;;;20.80;51.80;;;;;;5048949;28;20226;-61
2021/05/22 00:23:32;;;;;;;2.13;1.00;;;20.80;51.80;;;;;;5048977;28;20275;-64
2021/05/22 00:26:03;;;;;;;1.60;0.70;;;20.80;51.90;;;;;;5046769;28;20233;-60
2021/05/22 00:28:30;;;;;;;2.60;0.90;;;20.80;51.80;;;;;;5048440;28;21317;-60
2021/05/22 00:30:57;;;;;;;1.00;0.77;;;20.80;51.80;;;;;;5036980;28;20700;-60
2021/05/22 00:33:24;;;;;;;1.80;0.73;;;20.80;51.80;;;;;;5026761;28;20801;-59
2021/05/22 00:35:56;;;;;;;2.30;0.90;;;20.70;51.80;;;;;;5045576;28;20222;-59
2021/05/22 00:38:23;;;;;;;1.23;0.80;;;20.70;51.90;;;;;;5019741;28;20226;-61
2021/05/22 00:40:49;;;;;;;3.60;1.00;;;20.70;51.80;;;;;;5024871;28;20231;-60
2021/05/22 00:43:16;;;;;;;1.87;0.87;;;20.70;51.80;;;;;;5041358;28;20226;-61
2021/05/22 00:45:44;;;;;;;1.27;0.77;;;20.70;51.70;;;;;;5045838;28;20226;-59
2021/05/22 00:48:12;;;;;;;1.23;0.70;;;20.70;51.60;;;;;;5048042;28;20275;-59
2021/05/22 00:50:41;;;;;;;2.27;0.77;;;20.70;51.80;;;;;;5061702;28;20236;-59
2021/05/22 00:53:10;;;;;;;4.27;1.23;;;20.70;51.60;;;;;;5047597;28;20220;-60
2021/05/22 00:55:38;;;;;;;1.37;0.70;;;20.70;51.70;;;;;;5045387;28;20324;-59
2021/05/22 00:58:05;;;;;;;1.37;0.70;;;20.60;51.70;;;;;;5047687;28;20221;-59
2021/05/22 01:00:39;;;;;;;2.30;0.90;;;20.60;51.70;;;;;;5052323;28;20221;-60
2021/05/22 01:03:09;;;;;;;1.90;0.73;;;20.60;51.70;;;;;;5042823;28;20249;-62
2021/05/22 01:05:42;;;;;;;2.00;0.77;;;20.60;51.80;;;;;;5045142;28;20218;-60
2021/05/22 01:08:27;;;;;;;0.80;0.70;;;20.60;51.90;;;;;;5045034;28;20228;-61
2021/05/22 01:11:10;;;;;;;2.27;0.80;;;20.60;51.80;;;;;;5025057;28;20235;-61
2021/05/22 01:13:39;;;;;;;1.40;0.60;;;20.60;51.80;;;;;;5012609;28;20635;-59
2021/05/22 01:16:07;;;;;;;3.03;0.87;;;20.60;51.80;;;;;;5027171;28;20219;-60
2021/05/22 01:18:34;;;;;;;1.40;0.80;;;20.60;51.80;;;;;;5009030;28;20300;-60
2021/05/22 01:21:03;;;;;;;1.70;0.70;;;20.60;51.80;;;;;;5024266;28;20227;-60
2021/05/22 01:23:32;;;;;;;2.47;1.00;;;20.60;51.90;;;;;;5031221;28;20733;-59
2021/05/22 01:25:59;;;;;;;1.83;0.90;;;20.50;51.70;;;;;;5023761;28;20839;-59
2021/05/22 01:28:26;;;;;;;4.07;0.93;;;20.60;51.80;;;;;;5041020;28;20895;-61
2021/05/22 01:30:53;;;;;;;1.87;0.70;;;20.50;51.70;;;;;;5026174;28;20260;-60
2021/05/22 01:33:21;;;;;;;2.43;0.93;;;20.50;51.70;;;;;;5025531;28;20216;-60
2021/05/22 01:35:49;;;;;;;2.73;1.10;;;20.50;51.70;;;;;;5017932;28;20226;-60
2021/05/22 01:38:16;;;;;;;2.40;0.70;;;20.50;51.70;;;;;;5009147;28;20214;-61
2021/05/22 01:40:43;;;;;;;2.10;0.80;;;20.50;51.60;;;;;;5033498;28;20712;-62
2021/05/22 01:43:10;;;;;;;2.07;0.70;;;20.50;51.60;;;;;;5032076;28;20756;-59
2021/05/22 01:45:42;;;;;;;1.77;0.83;;;20.50;51.50;;;;;;5013950;28;20598;-59
2021/05/22 01:48:13;;;;;;;1.77;0.70;;;20.40;51.60;;;;;;5018375;28;20223;-60
2021/05/22 01:50:43;;;;;;;1.23;0.70;;;20.50;51.60;;;;;;5016871;28;20722;-61
2021/05/22 01:53:13;;;;;;;1.37;0.80;;;20.50;51.60;;;;;;5018640;28;20237;-60
2021/05/22 01:55:42;;;;;;;1.43;0.60;;;20.50;51.50;;;;;;5036931;28;20238;-61
2021/05/22 01:58:10;;;;;;;2.00;1.10;;;20.40;51.60;;;;;;5024064;28;20226;-58
2021/05/22 02:00:38;;;;;;;1.80;0.90;;;20.40;51.40;;;;;;5031362;28;20218;-61
2021/05/22 02:03:35;;;;;;;1.07;0.50;;;20.40;51.50;;;;;;5021758;28;20709;-59
2021/05/22 02:06:05;;;;;;;1.63;0.70;;;20.40;51.40;;;;;;5027897;28;20230;-63
2021/05/22 02:08:41;;;;;;;1.60;0.70;;;20.40;51.50;;;;;;5032091;28;20305;-62
2021/05/22 02:11:08;;;;;;;1.83;0.73;;;20.40;51.50;;;;;;5049535;28;20681;-61
2021/05/22 02:13:38;;;;;;;1.80;0.60;;;20.40;51.40;;;;;;5045750;28;20705;-59
2021/05/22 02:16:12;;;;;;;1.50;0.60;;;20.40;51.40;;;;;;5049380;28;20572;-62
2021/05/22 02:18:41;;;;;;;1.40;0.77;;;20.40;51.40;;;;;;5048703;28;20239;-61
2021/05/22 02:21:09;;;;;;;1.77;0.93;;;20.40;51.40;;;;;;5047606;28;20228;-59
2021/05/22 02:23:44;;;;;;;1.63;0.70;;;20.40;51.30;;;;;;5048847;28;20234;-60
2021/05/22 02:26:11;;;;;;;1.17;0.63;;;20.30;51.40;;;;;;5047019;28;20244;-60
2021/05/22 02:28:42;;;;;;;1.13;0.70;;;20.30;51.30;;;;;;5049076;28;20234;-61
2021/05/22 02:31:10;;;;;;;1.83;0.80;;;20.40;51.40;;;;;;5050487;28;20229;-61
2021/05/22 02:33:37;;;;;;;1.73;0.77;;;20.40;51.20;;;;;;5063247;28;20596;-60
2021/05/22 02:36:05;;;;;;;1.23;0.80;;;20.30;51.30;;;;;;5047983;28;20226;-59
2021/05/22 02:38:37;;;;;;;1.00;0.50;;;20.30;51.30;;;;;;5049527;28;20236;-60
2021/05/22 02:41:07;;;;;;;3.83;0.80;;;20.30;51.30;;;;;;5044859;28;21121;-60
2021/05/22 02:43:35;;;;;;;1.60;0.70;;;20.30;51.30;;;;;;5038230;28;20215;-60
2021/05/22 02:46:04;;;;;;;2.70;0.93;;;20.30;51.20;;;;;;5034348;28;20693;-61
2021/05/22 02:48:36;;;;;;;1.53;0.70;;;20.30;51.20;;;;;;5030690;28;20222;-61
2021/05/22 02:51:04;;;;;;;1.20;0.70;;;20.30;51.20;;;;;;5037059;28;20728;-61
2021/05/22 02:53:35;;;;;;;2.20;0.87;;;20.30;51.30;;;;;;5043057;28;20223;-61
2021/05/22 02:56:04;;;;;;;1.83;0.70;;;20.30;51.10;;;;;;5035699;28;20697;-60
2021/05/22 02:58:35;;;;;;;1.60;0.83;;;20.30;51.20;;;;;;5030967;28;20235;-60
2021/05/22 03:01:03;;;;;;;1.00;0.70;;;20.30;51.30;;;;;;5044567;28;20312;-59
2021/05/22 03:03:31;;;;;;;1.90;0.93;;;20.30;51.20;;;;;;5035412;28;20229;-59
2021/05/22 03:06:02;;;;;;;1.60;0.70;;;20.30;51.30;;;;;;5053265;28;20224;-59
2021/05/22 03:08:30;;;;;;;1.47;0.67;;;20.30;51.20;;;;;;5050489;28;20222;-60
2021/05/22 03:10:57;;;;;;;1.23;0.70;;;20.30;51.30;;;;;;5047564;28;20218;-60
2021/05/22 03:13:24;;;;;;;1.77;0.60;;;20.20;51.20;;;;;;5048241;28;20234;-61
2021/05/22 03:15:51;;;;;;;1.57;0.67;;;20.20;51.10;;;;;;5045958;28;20717;-60
2021/05/22 03:18:18;;;;;;;1.73;1.00;;;20.30;51.20;;;;;;5032593;28;20221;-60
2021/05/22 03:20:44;;;;;;;1.63;0.80;;;20.20;51.20;;;;;;5045234;28;20219;-61
2021/05/22 03:23:11;;;;;;;1.00;0.60;;;20.30;51.30;;;;;;5036908;28;20218;-60
2021/05/22 03:25:43;;;;;;;1.77;0.80;;;20.20;51.30;;;;;;5046851;28;20801;-60
2021/05/22 03:28:10;;;;;;;1.47;0.73;;;20.20;51.20;;;;;;5048176;28;20234;-61
2021/05/22 03:30:37;;;;;;;2.73;0.73;;;20.20;51.30;;;;;;5023707;28;20224;-59
2021/05/22 03:33:04;;;;;;;1.73;0.90;;;20.20;51.30;;;;;;5038624;28;20219;-61
2021/05/22 03:35:31;;;;;;;1.03;0.60;;;20.20;51.30;;;;;;5033793;28;20475;-60
2021/05/22 03:37:58;;;;;;;3.40;1.00;;;20.20;51.30;;;;;;5039382;28;21660;-60
2021/05/22 03:40:25;;;;;;;1.30;0.60;;;20.20;51.30;;;;;;5046427;28;20230;-61
2021/05/22 03:42:52;;;;;;;3.03;0.90;;;20.20;51.30;;;;;;5049379;28;20233;-59
2021/05/22 03:45:19;;;;;;;1.43;0.80;;;20.20;51.40;;;;;;5046827;28;20225;-61
2021/05/22 03:47:46;;;;;;;2.87;0.83;;;20.20;51.30;;;;;;5046461;28;20226;-60
2021/05/22 03:50:13;;;;;;;1.93;0.77;;;20.20;51.30;;;;;;5042978;28;20222;-60
2021/05/22 03:52:40;;;;;;;0.90;0.57;;;20.20;51.30;;;;;;5055892;28;20699;-60
2021/05/22 03:55:08;;;;;;;2.77;0.70;;;20.10;51.30;;;;;;5053693;28;20241;-62
2021/05/22 03:57:35;;;;;;;1.60;0.80;;;20.20;51.30;;;;;;5028000;28;20679;-59
2021/05/22 04:00:05;;;;;;;1.70;0.70;;;20.20;51.30;;;;;;5021777;28;20225;-60
2021/05/22 04:02:32;;;;;;;2.00;0.90;;;20.20;51.30;;;;;;5048096;28;21590;-62
2021/05/22 04:04:59;;;;;;;1.13;0.60;;;20.20;51.30;;;;;;5045142;28;20452;-61
2021/05/22 04:07:26;;;;;;;1.17;0.70;;;20.10;51.20;;;;;;5044937;28;20225;-66
2021/05/22 04:09:53;;;;;;;1.00;0.60;;;20.10;51.20;;;;;;5043176;28;20797;-65
2021/05/22 04:12:20;;;;;;;4.57;0.90;;;20.10;51.10;;;;;;5040635;28;20253;-63
2021/05/22 04:14:52;;;;;;;1.93;0.90;;;20.20;51.00;;;;;;5035374;28;20222;-64
2021/05/22 04:17:18;;;;;;;1.00;0.67;;;20.20;51.00;;;;;;5033797;28;20235;-62
2021/05/22 04:19:45;;;;;;;1.47;0.83;;;20.20;51.00;;;;;;5030629;28;20238;-64
2021/05/22 04:22:12;;;;;;;1.53;0.70;;;20.20;51.00;;;;;;5035561;28;20781;-59
2021/05/22 04:24:39;;;;;;;1.70;0.77;;;20.30;51.00;;;;;;5044148;28;20686;-62
2021/05/22 04:27:05;;;;;;;1.73;0.90;;;20.30;50.90;;;;;;5044268;28;20237;-67
2021/05/22 04:29:32;;;;;;;3.43;0.67;;;20.30;50.90;;;;;;5032918;28;20219;-65
2021/05/22 04:31:59;;;;;;;2.23;1.07;;;20.30;50.80;;;;;;5042673;28;20243;-65
2021/05/22 04:34:26;;;;;;;1.40;0.67;;;20.30;50.70;;;;;;5046025;28;20229;-62
2021/05/22 04:36:53;;;;;;;2.47;1.00;;;20.40;50.60;;;;;;5050896;28;20229;-68
2021/05/22 04:39:20;;;;;;;3.33;0.80;;;20.40;50.60;;;;;;5043988;28;20236;-64
2021/05/22 04:41:47;;;;;;;2.67;1.07;;;20.50;50.50;;;;;;5044945;28;20228;-64
2021/05/22 04:44:14;;;;;;;1.63;0.80;;;20.50;50.30;;;;;;5044911;28;20225;-64
2021/05/22 04:46:40;;;;;;;3.63;1.00;;;20.50;50.20;;;;;;5044939;28;20221;-62
2021/05/22 04:49:07;;;;;;;2.53;1.00;;;20.50;50.10;;;;;;5046795;28;20213;-63
2021/05/22 04:51:34;;;;;;;2.47;1.00;;;20.50;50.00;;;;;;5044921;28;20253;-58
2021/05/22 04:54:04;;;;;;;2.10;0.83;;;20.60;50.10;;;;;;5048326;28;20217;-57
2021/05/22 04:56:31;;;;;;;2.70;0.80;;;20.60;50.00;;;;;;5035804;28;21392;-57
2021/05/22 04:58:59;;;;;;;1.73;0.80;;;20.60;49.90;;;;;;5035922;28;20220;-58
2021/05/22 05:01:26;;;;;;;4.47;0.90;;;20.60;50.00;;;;;;5044965;28;20240;-59
2021/05/22 05:03:53;;;;;;;3.03;1.30;;;20.70;50.10;;;;;;5042098;28;20722;-58
2021/05/22 05:06:20;;;;;;;3.70;1.00;;;20.70;49.90;;;;;;5047708;28;20225;-58
2021/05/22 05:08:47;;;;;;;7.97;0.87;;;20.70;50.00;;;;;;5049998;28;20233;-57
2021/05/22 05:11:14;;;;;;;1.37;0.50;;;20.70;50.10;;;;;;5050105;28;20221;-58
2021/05/22 05:13:41;;;;;;;3.03;0.93;;;20.70;49.80;;;;;;5051652;28;20228;-58
2021/05/22 05:16:08;;;;;;;3.50;0.90;;;20.80;49.90;;;;;;5046692;28;20217;-59
2021/05/22 05:18:34;;;;;;;2.40;0.87;;;20.70;49.80;;;;;;5047871;28;20213;-60
2021/05/22 05:21:01;;;;;;;3.73;1.13;;;20.80;49.80;;;;;;5046309;28;20764;-59
2021/05/22 05:23:28;;;;;;;4.17;0.97;;;20.70;49.60;;;;;;5028256;28;20266;-59
2021/05/22 05:25:55;;;;;;;3.17;1.00;;;20.70;49.50;;;;;;5049911;28;20218;-63
2021/05/22 05:28:22;;;;;;;1.43;0.83;;;20.70;49.60;;;;;;5039262;28;20283;-63
2021/05/22 05:30:48;;;;;;;1.90;0.70;;;20.70;49.60;;;;;;5050383;28;20224;-63
2021/05/22 05:33:15;;;;;;;2.73;0.80;;;20.70;49.70;;;;;;5048157;28;20210;-63
2021/05/22 05:35:42;;;;;;;2.67;1.10;;;20.70;49.70;;;;;;5054088;28;20220;-63
2021/05/22 05:38:09;;;;;;;1.73;0.90;;;20.70;49.60;;;;;;5047588;28;20241;-63
2021/05/22 05:40:36;;;;;;;3.40;0.90;;;20.60;49.50;;;;;;5045664;28;20223;-63
2021/05/22 05:43:04;;;;;;;3.13;0.80;;;20.60;49.40;;;;;;5049093;28;20222;-64
2021/05/22 05:45:30;;;;;;;3.10;1.00;;;20.60;49.60;;;;;;5047085;28;20233;-62
2021/05/22 05:47:57;;;;;;;2.30;1.00;;;20.60;49.50;;;;;;5049779;28;20689;-62
2021/05/22 05:50:24;;;;;;;3.37;1.10;;;20.60;49.50;;;;;;5045449;28;20234;-58
2021/05/22 05:52:51;;;;;;;3.20;1.10;;;20.50;49.60;;;;;;5053712;28;20752;-57
2021/05/22 05:55:17;;;;;;;3.13;1.00;;;20.50;49.50;;;;;;5049486;28;20228;-56
2021/05/22 05:57:44;;;;;;;2.00;0.80;;;20.50;49.60;;;;;;5046642;28;20230;-56
2021/05/22 06:00:11;;;;;;;4.10;1.27;;;20.50;49.50;;;;;;5047550;28;20236;-56
2021/05/22 06:02:38;;;;;;;3.17;1.00;;;20.50;49.60;;;;;;5037030;28;20226;-58
2021/05/22 06:05:06;;;;;;;3.10;1.10;;;20.50;50.30;;;;;;5047437;28;20222;-57
2021/05/22 06:07:33;;;;;;;3.27;0.97;;;20.50;49.90;;;;;;5058048;28;20229;-60
2021/05/22 06:10:00;;;;;;;2.83;1.27;;;20.50;50.30;;;;;;5038969;28;20565;-57
2021/05/22 06:12:27;;;;;;;2.70;1.17;;;20.40;50.10;;;;;;5049001;28;20223;-67
2021/05/22 06:14:57;;;;;;;1.87;0.97;;;20.40;50.10;;;;;;5039256;28;20230;-68
2021/05/22 06:17:24;;;;;;;3.93;1.40;;;20.40;50.30;;;;;;5028826;28;20227;-68
2021/05/22 06:19:51;;;;;;;2.07;0.70;;;20.40;50.20;;;;;;5034568;28;20243;-67
2021/05/22 06:22:18;;;;;;;2.63;1.10;;;20.40;50.20;;;;;;5026622;28;20223;-67
2021/05/22 06:24:46;;;;;;;5.37;1.20;;;20.40;50.30;;;;;;5041976;28;20270;-67
2021/05/22 06:27:13;;;;;;;3.13;1.20;;;20.40;50.30;;;;;;5047707;28;20224;-67
2021/05/22 06:29:39;;;;;;;3.13;1.10;;;20.40;50.90;;;;;;5033310;28;20247;-65
2021/05/22 06:32:06;;;;;;;3.67;1.27;;;20.40;50.20;;;;;;5027575;28;20219;-63
2021/05/22 06:34:35;;;;;;;2.93;1.27;;;20.40;50.30;;;;;;5033722;28;20221;-63
2021/05/22 06:37:01;;;;;;;2.20;1.17;;;20.30;50.30;;;;;;5034417;28;20222;-64
2021/05/22 06:39:29;;;;;;;3.33;1.20;;;20.30;50.30;;;;;;5021768;28;20257;-62
2021/05/22 06:41:56;;;;;;;3.03;1.27;;;20.40;50.70;;;;;;5026213;28;20237;-58
2021/05/22 06:44:27;;;;;;;5.93;1.10;;;20.30;50.80;;;;;;5033193;28;20235;-58
2021/05/22 06:46:54;;;;;;;4.00;1.47;;;20.30;51.00;;;;;;5033133;28;20264;-58
2021/05/22 06:49:21;;;;;;;2.77;1.00;;;20.30;50.90;;;;;;5032658;28;20314;-58
2021/05/22 06:51:49;;;;;;;2.73;1.20;;;20.30;51.00;;;;;;5039763;28;20218;-58
2021/05/22 06:54:16;;;;;;;2.67;1.20;;;20.30;51.00;;;;;;5041189;28;20585;-56
2021/05/22 06:56:43;;;;;;;3.50;1.30;;;20.30;50.90;;;;;;5045179;28;20214;-56
2021/05/22 06:59:09;;;;;;;7.60;1.43;;;20.30;50.80;;;;;;5046536;28;20214;-57
2021/05/22 07:01:36;;;;;;;5.67;1.00;;;20.30;50.80;;;;;;5047657;28;20218;-57
2021/05/22 07:04:03;;;;;;;5.40;1.30;;;20.30;50.70;;;;;;5046654;28;20229;-59
2021/05/22 07:06:30;;;;;;;4.80;1.27;;;20.30;50.60;;;;;;5048162;28;20232;-59
2021/05/22 07:08:57;;;;;;;2.63;1.03;;;20.30;50.60;;;;;;5048358;28;20229;-63
2021/05/22 07:11:26;;;;;;;5.30;1.27;;;20.30;50.60;;;;;;5048861;28;20233;-60
2021/05/22 07:13:52;;;;;;;4.30;1.40;;;20.30;50.60;;;;;;5037985;28;20234;-59
2021/05/22 07:16:19;;;;;;;2.80;1.13;;;20.40;50.50;;;;;;5047530;28;20222;-59
2021/05/22 07:18:46;;;;;;;3.53;1.53;;;20.40;50.40;;;;;;5045417;28;20238;-57
2021/05/22 07:21:14;;;;;;;3.03;1.53;;;20.50;50.40;;;;;;5046847;28;20221;-62
2021/05/22 07:23:40;;;;;;;2.93;1.23;;;20.50;50.30;;;;;;5047835;28;20290;-63
2021/05/22 07:26:07;;;;;;;5.80;1.43;;;20.50;50.10;;;;;;5035255;28;20227;-63
2021/05/22 07:28:35;;;;;;;3.73;1.30;;;20.50;49.90;;;;;;5038736;28;20223;-63
2021/05/22 07:31:02;;;;;;;3.93;1.30;;;20.50;49.80;;;;;;5030396;28;20246;-63
2021/05/22 07:33:38;;;;;;;3.93;1.10;;;20.60;49.80;;;;;;5037173;28;20349;-63
2021/05/22 07:36:06;;;;;;;5.80;1.53;;;20.60;49.60;;;;;;5036197;28;21011;-71
2021/05/22 07:38:33;;;;;;;4.87;1.23;;;20.60;49.60;;;;;;5030159;28;20597;-66
2021/05/22 07:41:00;;;;;;;5.67;1.30;;;20.60;49.60;;;;;;5026611;28;20338;-65
2021/05/22 07:43:27;;;;;;;5.30;1.53;;;20.60;49.60;;;;;;5022489;28;20230;-68
2021/05/22 07:45:57;;;;;;;2.67;1.17;;;20.70;49.90;;;;;;5043485;28;20222;-72
2021/05/22 07:48:24;;;;;;;5.37;1.60;;;20.80;49.70;;;;;;5046702;28;20238;-66
2021/05/22 07:50:55;;;;;;;7.50;1.53;;;20.70;49.30;;;;;;5037342;28;20689;-70
2021/05/22 07:53:21;;;;;;;2.97;1.20;;;20.80;49.30;;;;;;5029845;28;21382;-64
2021/05/22 07:55:49;;;;;;;4.47;1.30;;;20.80;49.20;;;;;;5016811;28;20609;-66
2021/05/22 07:58:16;;;;;;;3.73;1.30;;;20.80;49.30;;;;;;5031566;28;20237;-64
2021/05/22 08:00:44;;;;;;;4.03;1.33;;;20.90;49.30;;;;;;5025427;28;20230;-63
2021/05/22 08:03:11;;;;;;;2.10;1.03;;;20.90;49.20;;;;;;5039108;28;20224;-62
2021/05/22 08:05:38;;;;;;;5.23;1.20;;;20.90;49.10;;;;;;5046305;28;20222;-65
2021/05/22 08:08:05;;;;;;;3.00;0.90;;;20.90;49.10;;;;;;5043057;28;20234;-66
2021/05/22 08:10:32;;;;;;;3.33;1.10;;;21.00;49.10;;;;;;5041079;28;20314;-66
2021/05/22 08:12:59;;;;;;;2.47;1.10;;;20.90;49.10;;;;;;5044894;28;20235;-64
2021/05/22 08:15:27;;;;;;;1.63;0.90;;;20.90;48.90;;;;;;5043852;28;20229;-61
2021/05/22 08:17:54;;;;;;;2.77;1.17;;;21.00;49.00;;;;;;5020562;28;20263;-67
2021/05/22 08:20:21;;;;;;;2.33;0.90;;;21.00;48.90;;;;;;5019980;28;20230;-65
2021/05/22 08:22:49;;;;;;;3.03;1.30;;;21.00;48.80;;;;;;5043491;28;20229;-62
2021/05/22 08:25:16;;;;;;;2.80;1.23;;;21.00;48.80;;;;;;5043650;28;20230;-63
2021/05/22 08:27:43;;;;;;;2.50;1.17;;;21.00;48.70;;;;;;5045840;28;20252;-70
2021/05/22 08:30:11;;;;;;;2.43;1.10;;;21.00;48.70;;;;;;5039723;28;20233;-64
2021/05/22 08:32:39;;;;;;;2.20;1.10;;;21.10;49.10;;;;;;5039325;28;20226;-67
2021/05/22 08:35:08;;;;;;;2.27;1.10;;;21.10;49.00;;;;;;5046086;28;20237;-70
2021/05/22 08:37:35;;;;;;;2.83;1.00;;;21.10;49.00;;;;;;5047410;28;20230;-63
2021/05/22 08:40:04;;;;;;;2.20;1.03;;;21.10;49.10;;;;;;5049739;28;20225;-63
2021/05/22 08:42:32;;;;;;;8.37;1.50;;;21.10;49.00;;;;;;5026183;28;21288;-69
2021/05/22 08:45:13;;;;;;;1.77;0.83;;;21.10;49.00;;;;;;5042135;28;20359;-66
2021/05/22 08:47:41;;;;;;;3.30;1.20;;;21.20;48.90;;;;;;5031988;28;20228;-69
2021/05/22 08:50:11;;;;;;;2.83;0.90;;;21.10;48.80;;;;;;5046139;28;20890;-69
2021/05/22 08:52:38;;;;;;;4.07;1.53;;;21.20;48.70;;;;;;5043284;28;20602;-68
2021/05/22 08:55:06;;;;;;;2.97;1.30;;;21.10;49.00;;;;;;5044305;28;20228;-65
2021/05/22 08:57:33;;;;;;;6.80;1.40;;;21.20;49.10;;;;;;5045772;28;20225;-65
2021/05/22 09:00:00;;;;;;;2.67;1.50;;;21.20;49.20;;;;;;5045827;28;21004;-65
2021/05/22 09:02:27;;;;;;;5.55;2.05;;;21.20;49.20;;;;;;5044684;28;20418;-63
2021/05/22 09:05:14;;;;;;;7.07;1.53;;;21.20;49.30;;;;;;5049035;28;20228;-63
2021/05/22 09:07:51;;;;;;;3.87;1.47;;;21.20;49.50;;;;;;5031784;28;20218;-60
2021/05/22 09:10:21;;;;;;;4.43;1.63;;;21.20;49.40;;;;;;5048476;28;20953;-63
2021/05/22 09:12:51;;;;;;;4.83;1.47;;;21.30;49.40;;;;;;5045323;28;20232;-62
2021/05/22 09:15:21;;;;;;;5.33;1.37;;;21.30;49.20;;;;;;5040529;28;20296;-62
2021/05/22 09:18:03;;;;;;;5.73;1.30;;;21.40;49.40;;;;;;5044146;28;20608;-62
2021/05/22 09:20:35;;;;;;;5.83;1.30;;;21.40;49.90;;;;;;5027491;28;20773;-63
2021/05/22 09:23:04;;;;;;;5.67;1.43;;;21.50;49.50;;;;;;5029362;28;20219;-65
2021/05/22 09:25:34;;;;;;;4.83;1.23;;;21.50;49.30;;;;;;5033632;28;20835;-62
2021/05/22 09:28:03;;;;;;;6.10;1.40;;;21.60;49.30;;;;;;5024311;28;20222;-62
2021/05/22 09:30:32;;;;;;;5.70;1.40;;;21.60;49.10;;;;;;5035949;28;20754;-62
2021/05/22 09:32:59;;;;;;;2.60;1.33;;;21.60;49.00;;;;;;5025913;28;20218;-62
2021/05/22 09:35:26;;;;;;;3.00;1.33;;;21.60;48.90;;;;;;5045636;28;20229;-62
2021/05/22 09:38:01;;;;;;;4.27;1.30;;;21.60;48.80;;;;;;5045991;28;20260;-63
2021/05/22 09:40:31;;;;;;;3.93;1.40;;;21.60;49.20;;;;;;5044005;28;20232;-63
2021/05/22 09:43:00;;;;;;;3.37;1.10;;;21.60;48.90;;;;;;5042191;28;20225;-58
2021/05/22 09:45:31;;;;;;;5.57;1.57;;;21.70;49.00;;;;;;5034155;28;20701;-60
2021/05/22 09:48:11;;;;;;;3.00;1.40;;;21.70;48.70;;;;;;5048197;28;20309;-58
2021/05/22 09:50:42;;;;;;;2.20;1.00;;;21.70;48.70;;;;;;5044723;28;20222;-59
2021/05/22 09:53:24;;;;;;;2.03;1.07;;;21.70;48.50;;;;;;5048327;28;20222;-65
2021/05/22 09:56:16;;;;;;;2.70;1.37;;;21.70;48.40;;;;;;5053480;28;20230;-64
2021/05/22 09:58:54;;;;;;;3.40;1.10;;;21.70;48.40;;;;;;5035070;28;20417;-63
2021/05/22 10:01:31;;;;;;;4.80;1.57;;;21.70;48.40;;;;;;5049607;28;20708;-61
2021/05/22 10:04:18;;;;;;;2.90;1.23;;;21.60;48.40;;;;;;5037338;28;20225;-62
2021/05/22 10:06:46;;;;;;;3.60;1.00;;;21.60;48.50;;;;;;5027517;28;20588;-65
2021/05/22 10:09:16;;;;;;;2.77;1.17;;;21.60;48.50;;;;;;5044492;28;20233;-66
2021/05/22 10:12:07;;;;;;;2.77;1.30;;;21.60;48.50;;;;;;5043206;28;20237;-63
2021/05/22 10:14:36;;;;;;;3.33;1.00;;;21.60;49.00;;;;;;5048137;28;20252;-63
2021/05/22 10:17:05;;;;;;;8.23;1.53;;;21.60;48.70;;;;;;5061759;28;20229;-62
2021/05/22 10:19:34;;;;;;;3.43;1.13;;;21.60;50.10;;;;;;5048224;28;20226;-65
2021/05/22 10:22:01;;;;;;;4.33;1.47;;;21.70;49.70;;;;;;5039454;28;20708;-64
2021/05/22 10:24:29;;;;;;;8.60;1.67;;;21.70;52.00;;;;;;5036877;28;20230;-62
2021/05/22 10:26:57;;;;;;;8.93;1.50;;;21.70;51.70;;;;;;5056774;28;20229;-63
2021/05/22 10:29:25;;;;;;;4.23;1.43;;;21.70;51.70;;;;;;5046735;28;20233;-63
2021/05/22 10:31:52;;;;;;;1.90;1.00;;;21.70;51.30;;;;;;5050423;28;20225;-61
2021/05/22 10:34:26;;;;;;;4.37;1.30;;;21.60;50.90;;;;;;5034656;28;20241;-59
2021/05/22 10:36:58;;;;;;;22.37;2.50;;;21.60;50.90;;;;;;5026928;28;20222;-60
2021/05/22 10:39:40;;;;;;;65.83;11.53;;;21.60;50.70;;;;;;5030816;28;20231;-60
2021/05/22 10:42:28;;;;;;;63.67;10.77;;;21.60;50.90;;;;;;5045099;28;21450;-66
2021/05/22 10:44:57;;;;;;;52.63;10.23;;;21.60;50.70;;;;;;5042427;28;20233;-67
2021/05/22 10:47:28;;;;;;;46.00;8.10;;;21.70;50.60;;;;;;5046838;28;20226;-67
2021/05/22 10:49:55;;;;;;;32.50;7.43;;;21.60;50.20;;;;;;5038507;28;20469;-67
2021/05/22 10:52:27;;;;;;;25.27;7.20;;;21.60;50.10;;;;;;5042596;28;20254;-68
2021/05/22 10:55:07;;;;;;;27.60;5.97;;;21.60;50.10;;;;;;5040673;28;20234;-67
2021/05/22 10:58:06;;;;;;;20.47;5.70;;;21.60;50.00;;;;;;5043205;28;20897;-67
2021/05/22 11:00:32;;;;;;;16.13;4.87;;;21.60;50.00;;;;;;5033202;28;20969;-67
2021/05/22 11:03:05;;;;;;;22.83;5.10;;;21.60;49.80;;;;;;5042303;28;20237;-67
2021/05/22 11:05:35;;;;;;;16.97;4.27;;;21.60;49.80;;;;;;5041978;28;21631;-58
2021/05/22 11:08:05;;;;;;;18.97;4.83;;;21.60;49.80;;;;;;5046456;28;20222;-59
2021/05/22 11:10:41;;;;;;;13.60;4.07;;;21.50;49.80;;;;;;5050641;28;20568;-59
2021/05/22 11:13:09;;;;;;;14.03;3.60;;;21.50;49.90;;;;;;5038224;28;20225;-59
2021/05/22 11:15:47;;;;;;;8.97;3.03;;;21.60;51.00;;;;;;5052671;28;20932;-61
2021/05/22 11:18:16;;;;;;;7.43;3.33;;;21.60;51.60;;;;;;5044892;28;20580;-57
2021/05/22 11:21:19;;;;;;;6.97;2.70;;;21.70;51.80;;;;;;5047379;28;20288;-60
2021/05/22 11:24:04;;;;;;;6.13;2.60;;;21.70;51.70;;;;;;5029571;28;20253;-58
2021/05/22 11:26:48;;;;;;;7.13;2.70;;;21.70;51.90;;;;;;5026962;28;21500;-59
2021/05/22 19:24:40;;;;;;;2.47;1.43;;;21.60;57.90;;;;;;5064587;23;20241;-77
2021/05/22 19:27:07;;;;;;;2.47;1.60;;;21.60;58.60;;;;;;5024499;28;20294;-77
2021/05/22 19:29:34;;;;;;;6.03;1.93;;;21.60;58.60;;;;;;5020859;28;20210;-75
2021/05/22 19:32:01;;;;;;;3.13;1.40;;;21.50;58.70;;;;;;5031013;28;20557;-76
2021/05/22 19:34:28;;;;;;;1.43;1.30;;;21.50;58.90;;;;;;5024214;28;20201;-76
2021/05/22 19:36:55;;;;;;;2.43;1.53;;;21.50;58.80;;;;;;5028934;28;20215;-76
2021/05/22 19:39:22;;;;;;;2.83;1.40;;;21.50;59.00;;;;;;5023378;28;21060;-76
2021/05/22 19:41:49;;;;;;;4.60;1.40;;;21.40;58.90;;;;;;5029970;28;20191;-74
2021/05/22 19:44:16;;;;;;;2.17;1.23;;;21.40;59.20;;;;;;5021735;28;20259;-75
2021/05/22 19:46:43;;;;;;;1.43;1.23;;;21.40;59.10;;;;;;5029073;28;20214;-75
2021/05/22 19:49:10;;;;;;;3.17;1.17;;;21.40;59.50;;;;;;5022371;28;20535;-75
2021/05/22 19:51:37;;;;;;;3.90;1.37;;;21.40;59.60;;;;;;5022654;28;20187;-75
2021/05/22 19:54:06;;;;;;;1.10;1.00;;;21.30;59.40;;;;;;5023294;28;20242;-75
2021/05/22 19:56:34;;;;;;;2.73;0.90;;;21.30;59.50;;;;;;5023809;28;20225;-75
2021/05/22 19:59:06;;;;;;;1.93;0.90;;;21.30;59.60;;;;;;5021457;28;20238;-75
2021/05/22 20:01:33;;;;;;;3.50;1.10;;;21.30;59.80;;;;;;5026146;28;20286;-75
2021/05/22 20:04:00;;;;;;;1.83;1.00;;;21.30;59.80;;;;;;5006289;28;20223;-75
2021/05/22 20:06:27;;;;;;;1.47;1.07;;;21.20;59.80;;;;;;5023242;28;20197;-75
2021/05/22 20:08:54;;;;;;;1.30;1.00;;;21.20;59.90;;;;;;5022098;28;20204;-78
2021/05/22 20:11:21;;;;;;;1.47;1.07;;;21.20;60.20;;;;;;5025859;28;20678;-79
2021/05/22 20:13:48;;;;;;;2.90;1.50;;;21.20;59.90;;;;;;5022367;28;20191;-79
2021/05/22 20:16:15;;;;;;;1.80;1.17;;;21.20;61.90;;;;;;5023146;28;20207;-79
2021/05/22 20:18:42;;;;;;;1.50;1.17;;;21.20;62.50;;;;;;5003962;28;20685;-79
2021/05/22 20:21:10;;;;;;;2.40;1.30;;;21.10;62.40;;;;;;5022999;28;20215;-80
2021/05/22 20:23:38;;;;;;;3.17;1.10;;;21.20;62.30;;;;;;5021961;28;20206;-79
2021/05/22 20:26:06;;;;;;;1.23;0.90;;;21.10;62.10;;;;;;5020685;28;20242;-79
2021/05/22 20:28:33;;;;;;;3.07;1.20;;;21.10;62.20;;;;;;5021885;28;20191;-78
2021/05/22 20:31:04;;;;;;;0.93;0.90;;;21.10;62.30;;;;;;5024466;28;20594;-79
2021/05/22 20:33:34;;;;;;;1.20;1.00;;;21.10;62.40;;;;;;5022582;28;20260;-79
2021/05/22 20:36:03;;;;;;;1.10;1.00;;;21.10;62.10;;;;;;5021637;28;20226;-79
2021/05/22 20:38:30;;;;;;;2.40;1.10;;;21.00;62.10;;;;;;5021555;28;20202;-79
2021/05/22 20:40:57;;;;;;;2.20;1.00;;;21.00;62.50;;;;;;5022904;28;20613;-79
2021/05/22 20:43:24;;;;;;;1.30;1.20;;;21.00;62.40;;;;;;5021856;28;20458;-79
2021/05/22 20:45:51;;;;;;;1.43;1.00;;;21.00;62.30;;;;;;5021122;28;20215;-79
2021/05/22 20:48:18;;;;;;;2.30;1.20;;;21.00;62.10;;;;;;5020703;28;20198;-80
2021/05/22 20:50:45;;;;;;;2.17;1.30;;;21.00;62.10;;;;;;5024165;28;20205;-80